Time;durP1;ratioP1;P1;durP2;ratioP2;P2;SDS_P1;SDS_P2;PMS_P1;PMS_P2;Temp;Humidity;BMP_temperature;BMP_pressure;BME280_temperature;BME280_humidity;BME280_pressure;Samples;Min_cycle;Max_cycle;Signal;HPM_P1;HPM_P2
2024/04/13 00:00:11;;;;;;;8.02;3.80;;;;;;;16.83;100.00;102628.84;5694856;26;20900;-73
2024/04/13 00:02:44;;;;;;;6.15;4.00;;;;;;;16.80;100.00;102625.59;5690460;26;20061;-74
2024/04/13 00:05:16;;;;;;;5.35;3.55;;;;;;;16.68;100.00;102609.75;5694678;26;20472;-73
2024/04/13 00:07:48;;;;;;;4.88;3.05;;;;;;;16.69;100.00;102629.09;5689792;26;20047;-76
2024/04/13 00:10:20;;;;;;;5.13;3.38;;;;;;;16.62;100.00;102631.41;5691270;26;19998;-75
2024/04/13 00:12:52;;;;;;;8.43;4.43;;;;;;;16.63;100.00;102625.19;5691574;26;20013;-74
2024/04/13 00:15:24;;;;;;;7.85;4.28;;;;;;;16.54;100.00;102631.19;5696181;26;20030;-74
2024/04/13 00:17:58;;;;;;;5.32;3.38;;;;;;;16.55;100.00;102632.88;5656888;26;20050;-77
2024/04/13 00:20:30;;;;;;;5.35;3.80;;;;;;;16.43;100.00;102629.44;5692223;26;20034;-74
2024/04/13 00:23:05;;;;;;;4.32;3.20;;;;;;;16.48;100.00;102626.44;5688051;26;20006;-75
2024/04/13 00:25:37;;;;;;;5.18;3.35;;;;;;;16.30;100.00;102621.66;5691361;26;20030;-71
2024/04/13 00:28:09;;;;;;;4.47;3.92;;;;;;;16.24;100.00;102610.72;5697603;26;20464;-75
2024/04/13 00:30:41;;;;;;;5.63;3.95;;;;;;;16.36;100.00;102622.94;5691942;26;19998;-75
2024/04/13 00:33:13;;;;;;;6.13;3.67;;;;;;;16.37;100.00;102619.38;5685984;26;20053;-75
2024/04/13 00:35:45;;;;;;;6.03;4.23;;;;;;;16.44;100.00;102615.25;5696006;26;20027;-75
2024/04/13 00:38:17;;;;;;;6.57;4.43;;;;;;;16.37;100.00;102600.84;5694161;26;20022;-73
2024/04/13 00:40:49;;;;;;;5.93;3.72;;;;;;;16.39;100.00;102614.78;5691132;26;20386;-74
2024/04/13 00:43:20;;;;;;;5.95;3.90;;;;;;;16.40;100.00;102613.81;5690047;26;20010;-75
2024/04/13 00:45:55;;;;;;;7.15;4.00;;;;;;;16.40;100.00;102605.03;5697324;26;20037;-75
2024/04/13 00:48:30;;;;;;;6.30;3.83;;;;;;;16.41;100.00;102622.59;5695809;26;20113;-75
2024/04/13 00:51:04;;;;;;;7.53;4.13;;;;;;;16.31;100.00;102606.63;5693905;26;20039;-75
2024/04/13 00:53:41;;;;;;;5.05;4.07;;;;;;;16.29;100.00;102604.13;5661204;26;20003;-74
2024/04/13 00:56:13;;;;;;;5.55;4.10;;;;;;;16.27;100.00;102602.56;5700744;26;20057;-73
2024/04/13 00:58:45;;;;;;;6.53;4.00;;;;;;;16.35;100.00;102613.34;5694705;26;20074;-75
2024/04/13 01:01:18;;;;;;;6.47;4.40;;;;;;;16.28;100.00;102599.78;5697588;26;20057;-75
2024/04/13 01:03:51;;;;;;;6.13;3.53;;;;;;;16.29;100.00;102598.81;5698590;26;20038;-73
2024/04/13 01:06:23;;;;;;;6.38;4.30;;;;;;;16.23;100.00;102594.03;5667110;26;20054;-75
2024/04/13 01:08:56;;;;;;;5.07;3.80;;;;;;;16.34;100.00;102606.38;5696793;26;20600;-75
2024/04/13 01:11:31;;;;;;;6.47;4.35;;;;;;;16.29;100.00;102585.59;5694785;26;20008;-74
2024/04/13 01:14:03;;;;;;;5.72;4.00;;;;;;;16.26;100.00;102583.19;5697736;26;20021;-75
2024/04/13 01:16:35;;;;;;;6.70;4.20;;;;;;;16.28;100.00;102585.72;5698545;26;20002;-75
2024/04/13 01:19:07;;;;;;;7.03;3.87;;;;;;;16.26;100.00;102583.19;5693102;26;20949;-75
2024/04/13 01:21:40;;;;;;;5.60;3.75;;;;;;;16.26;100.00;102590.31;5700135;26;20002;-74
2024/04/13 01:24:12;;;;;;;5.05;3.55;;;;;;;16.29;100.00;102590.06;5695845;26;20027;-73
2024/04/13 01:26:44;;;;;;;6.72;4.20;;;;;;;16.24;100.00;102577.19;5691867;26;20021;-73
2024/04/13 01:29:16;;;;;;;5.87;4.27;;;;;;;16.27;100.00;102568.16;5692052;26;20030;-73
2024/04/13 01:31:48;;;;;;;4.85;3.70;;;;;;;16.28;100.00;102575.13;5700410;26;20034;-73
2024/04/13 01:34:20;;;;;;;6.65;4.18;;;;;;;16.20;100.00;102575.75;5698922;26;20088;-75
2024/04/13 01:36:52;;;;;;;5.35;4.00;;;;;;;16.18;100.00;102561.00;5690949;26;20585;-73
2024/04/13 01:39:24;;;;;;;7.68;4.47;;;;;;;16.23;100.00;102572.88;5695731;26;20013;-75
2024/04/13 01:41:56;;;;;;;6.43;4.72;;;;;;;16.28;100.00;102564.56;5661092;26;20054;-73
2024/04/13 01:44:28;;;;;;;6.75;5.03;;;;;;;16.21;100.00;102561.59;5693498;26;19998;-75
2024/04/13 01:47:01;;;;;;;6.40;5.03;;;;;;;16.28;100.00;102562.75;5689159;26;20652;-74
2024/04/13 01:49:32;;;;;;;9.93;6.10;;;;;;;16.25;100.00;102556.84;5662872;26;20013;-73
2024/04/13 01:52:05;;;;;;;6.32;5.30;;;;;;;16.22;100.00;102557.97;5700252;26;20009;-75
2024/04/13 01:54:37;;;;;;;8.35;5.45;;;;;;;16.20;100.00;102551.13;5689822;26;20012;-73
2024/04/13 01:57:09;;;;;;;7.70;5.20;;;;;;;16.25;100.00;102557.72;5697130;26;20342;-74
2024/04/13 01:59:41;;;;;;;8.18;5.13;;;;;;;16.24;100.00;102555.19;5695366;26;20085;-76
2024/04/13 02:02:16;;;;;;;9.85;5.53;;;;;;;16.15;100.00;102543.56;5693214;26;20016;-76
2024/04/13 02:04:47;;;;;;;8.88;6.22;;;;;;;16.21;100.00;102558.06;5697869;26;20034;-75
2024/04/13 02:07:19;;;;;;;7.03;6.00;;;;;;;16.18;100.00;102561.84;5696248;26;20393;-76
2024/04/13 02:09:51;;;;;;;6.95;5.43;;;;;;;16.14;100.00;102546.31;5697300;26;20012;-75
2024/04/13 02:12:23;;;;;;;8.38;6.13;;;;;;;16.22;100.00;102560.63;5685865;26;20006;-73
2024/04/13 02:14:58;;;;;;;7.47;5.82;;;;;;;16.23;100.00;102557.00;5695632;26;20020;-74
2024/04/13 02:17:31;;;;;;;8.70;5.85;;;;;;;16.14;100.00;102549.84;5662287;26;20411;-75
2024/04/13 02:20:03;;;;;;;7.07;5.78;;;;;;;16.20;100.00;102559.88;5694496;26;20043;-72
2024/04/13 02:22:35;;;;;;;8.15;5.40;;;;;;;16.21;100.00;102558.06;5693115;26;20030;-73
2024/04/13 02:25:14;;;;;;;8.18;5.40;;;;;;;16.17;100.00;102559.28;5695192;26;20005;-74
2024/04/13 02:27:46;;;;;;;7.90;5.50;;;;;;;16.12;100.00;102542.97;5679673;26;20485;-75
2024/04/13 02:30:18;;;;;;;7.07;5.45;;;;;;;16.12;100.00;102537.69;5688369;26;20045;-76
2024/04/13 02:32:50;;;;;;;7.45;5.10;;;;;;;16.09;100.00;102544.06;5695880;26;20006;-75
2024/04/13 02:35:23;;;;;;;8.60;5.20;;;;;;;16.15;100.00;102545.38;5690789;26;20006;-75
2024/04/13 02:37:58;;;;;;;7.95;5.88;;;;;;;16.08;100.00;102533.63;5698112;26;20924;-76
2024/04/13 02:40:30;;;;;;;6.63;5.25;;;;;;;16.03;100.00;102544.56;5685436;26;19998;-75
2024/04/13 02:43:03;;;;;;;8.55;5.18;;;;;;;16.05;100.00;102547.91;5698163;26;20384;-73
2024/04/13 02:45:35;;;;;;;7.85;5.60;;;;;;;16.08;100.00;102550.31;5695098;26;20049;-75
2024/04/13 02:48:07;;;;;;;8.77;4.80;;;;;;;16.04;100.00;102541.78;5694848;26;20843;-75
2024/04/13 02:50:39;;;;;;;6.15;5.05;;;;;;;16.03;100.00;102541.94;5693738;26;20022;-74
2024/04/13 02:53:11;;;;;;;7.55;5.43;;;;;;;16.00;100.00;102544.81;5689123;26;20014;-73
2024/04/13 02:55:44;;;;;;;7.32;4.93;;;;;;;15.93;100.00;102546.28;5696313;26;20018;-73
2024/04/13 02:58:16;;;;;;;9.07;6.03;;;;;;;15.93;100.00;102541.81;5695047;26;20059;-73
2024/04/13 03:00:56;;;;;;;10.50;5.30;;;;;;;16.13;100.00;102553.41;5689995;26;20033;-75
2024/04/13 03:03:28;;;;;;;6.63;5.10;;;;;;;15.87;100.00;102550.22;5691530;26;20042;-76
2024/04/13 03:06:12;;;;;;;10.20;5.32;;;;;;;16.00;100.00;102550.94;5694515;26;20056;-76
2024/04/13 03:08:44;;;;;;;7.80;5.75;;;;;;;15.87;100.00;102541.47;5686897;26;20034;-72
2024/04/13 03:11:17;;;;;;;6.65;5.45;;;;;;;15.82;100.00;102536.56;5696893;26;20034;-73
2024/04/13 03:13:49;;;;;;;;;;;;;;;16.64;100.00;102536.03;5686643;26;19998;-74
2024/04/13 03:16:23;;;;;;;7.07;5.03;;;;;;;15.89;100.00;102540.38;5695832;26;19979;-74
2024/04/13 03:18:57;;;;;;;8.95;5.30;;;;;;;15.89;100.00;102535.09;5694264;26;20054;-73
2024/04/13 03:21:30;;;;;;;7.30;5.40;;;;;;;15.81;100.00;102535.72;5654125;26;20041;-73
2024/04/13 03:24:03;;;;;;;10.05;5.95;;;;;;;15.75;100.00;102528.28;5689637;26;20054;-73
2024/04/13 03:26:35;;;;;;;;;;;;;;;16.60;100.00;102535.44;5692199;26;20617;-75
2024/04/13 03:29:07;;;;;;;7.78;5.13;;;;;;;15.85;100.00;102538.97;5693980;26;19992;-73
2024/04/13 03:31:39;;;;;;;7.75;5.80;;;;;;;15.65;100.00;102518.56;5692382;26;20088;-73
2024/04/13 03:34:11;;;;;;;8.20;5.65;;;;;;;15.72;100.00;102535.59;5693286;26;20006;-73
2024/04/13 03:36:43;;;;;;;11.00;6.15;;;;;;;15.70;100.00;102534.91;5661465;26;20036;-73
2024/04/13 03:39:15;;;;;;;7.60;5.78;;;;;;;15.62;100.00;102526.72;5696424;26;20493;-73
2024/04/13 03:41:48;;;;;;;7.40;5.57;;;;;;;15.62;100.00;102532.00;5688381;26;20034;-74
2024/04/13 03:44:20;;;;;;;8.53;5.50;;;;;;;15.67;100.00;102532.50;5694669;26;20034;-76
2024/04/13 03:46:52;;;;;;;7.40;5.68;;;;;;;15.62;100.00;102540.75;5691291;26;20024;-72
2024/04/13 03:49:24;;;;;;;7.07;5.72;;;;;;;15.55;100.00;102529.84;5695434;26;20022;-76
2024/04/13 03:51:56;;;;;;;7.50;5.75;;;;;;;15.63;100.00;102531.88;5661324;26;20064;-75
2024/04/13 03:54:28;;;;;;;8.90;6.07;;;;;;;15.56;100.00;102523.56;5688034;26;20006;-74
2024/04/13 03:57:00;;;;;;;9.27;6.45;;;;;;;15.56;100.00;102528.03;5696358;26;20002;-74
2024/04/13 03:59:32;;;;;;;10.18;6.25;;;;;;;15.61;100.00;102536.44;5689814;26;20002;-75
2024/04/13 04:02:03;;;;;;;6.85;6.07;;;;;;;15.50;100.00;102545.22;5698069;26;19994;-74
2024/04/13 04:04:35;;;;;;;6.82;5.97;;;;;;;15.46;100.00;102537.66;5689856;26;20006;-75
2024/04/13 04:07:08;;;;;;;9.15;6.10;;;;;;;15.49;100.00;102540.03;5688277;26;20325;-74
2024/04/13 04:09:39;;;;;;;7.80;5.80;;;;;;;15.45;100.00;102535.94;5698448;26;20049;-73
2024/04/13 04:12:11;;;;;;;7.07;5.57;;;;;;;15.36;100.00;102534.06;5691633;26;20267;-76
2024/04/13 04:14:46;;;;;;;7.43;5.82;;;;;;;15.22;100.00;102528.03;5693765;26;20097;-77
2024/04/13 04:17:17;;;;;;;7.68;6.10;;;;;;;15.27;100.00;102536.44;5686234;26;19998;-74
2024/04/13 04:19:49;;;;;;;6.80;5.85;;;;;;;15.16;100.00;102527.69;5696648;26;20540;-76
2024/04/13 04:22:21;;;;;;;8.32;5.72;;;;;;;15.13;100.00;102528.75;5693388;26;20032;-75
2024/04/13 04:24:56;;;;;;;8.20;5.88;;;;;;;15.20;100.00;102532.59;5658679;26;20052;-74
2024/04/13 04:27:28;;;;;;;7.00;5.38;;;;;;;15.03;100.00;102533.88;5692390;26;20042;-75
2024/04/13 04:30:00;;;;;;;7.90;5.63;;;;;;;14.90;100.00;102508.56;5663552;26;20071;-76
2024/04/13 04:32:35;;;;;;;8.23;5.53;;;;;;;14.81;100.00;102505.69;5694213;26;20002;-75
2024/04/13 04:35:07;;;;;;;6.75;5.60;;;;;;;14.95;100.00;102524.88;5690011;26;20070;-73
2024/04/13 04:37:38;;;;;;;6.85;5.78;;;;;;;14.97;100.00;102529.09;5691567;26;20034;-74
2024/04/13 04:40:10;;;;;;;7.35;5.50;;;;;;;14.99;100.00;102535.09;5690556;26;20074;-75
2024/04/13 04:42:43;;;;;;;7.40;5.80;;;;;;;14.86;100.00;102525.59;5696898;26;20002;-75
2024/04/13 04:45:14;;;;;;;6.45;5.68;;;;;;;14.91;100.00;102539.28;5691953;26;20097;-73
2024/04/13 04:47:49;;;;;;;7.57;5.50;;;;;;;14.82;100.00;102517.06;5691137;26;20014;-73
2024/04/13 04:50:21;;;;;;;8.77;5.88;;;;;;;14.93;100.00;102532.09;5657806;26;20027;-75
2024/04/13 04:52:53;;;;;;;8.13;5.60;;;;;;;14.78;100.00;102524.38;5692387;26;20002;-74
2024/04/13 04:55:25;;;;;;;8.75;6.00;;;;;;;14.89;100.00;102531.50;5697268;26;20003;-76
2024/04/13 04:57:57;;;;;;;7.97;5.70;;;;;;;14.95;100.00;102525.72;5693354;26;20068;-73
2024/04/13 05:00:29;;;;;;;8.60;5.90;;;;;;;14.87;100.00;102524.63;5688136;26;20049;-73
2024/04/13 05:03:01;;;;;;;7.65;6.10;;;;;;;14.80;100.00;102505.78;5690209;26;20030;-76
2024/04/13 05:05:33;;;;;;;7.25;5.43;;;;;;;14.74;100.00;102507.09;5692452;26;20002;-75
2024/04/13 05:08:05;;;;;;;8.35;6.13;;;;;;;14.87;100.00;102525.47;5686026;26;19998;-74
2024/04/13 05:10:37;;;;;;;8.63;5.95;;;;;;;14.81;100.00;102518.88;5690957;26;20641;-73
2024/04/13 05:13:09;;;;;;;10.38;6.35;;;;;;;14.88;100.00;102513.94;5692692;26;19998;-75
2024/04/13 05:15:41;;;;;;;8.20;6.10;;;;;;;14.92;100.00;102518.03;5688876;26;21760;-75
2024/04/13 05:18:13;;;;;;;10.50;6.20;;;;;;;14.91;100.00;102510.25;5686504;26;20050;-75
2024/04/13 05:20:45;;;;;;;7.53;6.70;;;;;;;14.89;100.00;102515.66;5681815;26;19999;-75
2024/04/13 05:23:17;;;;;;;8.57;6.00;;;;;;;15.00;100.00;102514.81;5679969;26;20472;-75
2024/04/13 05:25:49;;;;;;;7.28;5.90;;;;;;;14.94;100.00;102518.78;5635990;26;20010;-75
2024/04/13 05:28:22;;;;;;;9.50;7.03;;;;;;;14.92;100.00;102510.13;5693915;26;20002;-76
2024/04/13 05:30:56;;;;;;;9.32;6.22;;;;;;;14.98;100.00;102499.09;5692636;26;20321;-75
2024/04/13 05:33:28;;;;;;;8.45;6.90;;;;;;;15.01;100.00;102508.59;5694384;26;20037;-76
2024/04/13 05:36:00;;;;;;;8.75;6.32;;;;;;;15.02;100.00;102502.34;5696557;26;20026;-74
2024/04/13 05:38:32;;;;;;;8.48;6.82;;;;;;;15.08;100.00;102515.91;5698902;26;20063;-75
2024/04/13 05:41:04;;;;;;;10.18;6.50;;;;;;;15.15;100.00;102504.88;5690407;26;19998;-75
2024/04/13 05:43:36;;;;;;;7.65;6.75;;;;;;;15.16;100.00;102503.94;5695775;26;20021;-75
2024/04/13 05:46:08;;;;;;;7.70;6.53;;;;;;;15.21;100.00;102499.94;5673198;26;20011;-75
2024/04/13 05:48:40;;;;;;;7.75;6.60;;;;;;;15.15;100.00;102489.84;5688533;26;20017;-75
2024/04/13 05:51:12;;;;;;;8.75;6.63;;;;;;;15.31;100.00;102503.56;5688116;26;20007;-75
2024/04/13 05:53:44;;;;;;;8.90;6.05;;;;;;;15.37;100.00;102504.03;5697502;26;20005;-75
2024/04/13 05:56:16;;;;;;;7.78;6.28;;;;;;;15.40;100.00;102504.63;5691529;26;20002;-73
2024/04/13 05:58:50;;;;;;;8.68;7.28;;;;;;;15.45;100.00;102483.13;5683220;26;20083;-72
2024/04/13 06:01:24;;;;;;;8.75;6.55;;;;;;;15.47;100.00;102492.63;5683216;26;20383;-75
2024/04/13 06:03:56;;;;;;;8.80;6.82;;;;;;;15.50;100.00;102488.91;5661148;26;20049;-74
2024/04/13 06:06:28;;;;;;;9.90;7.20;;;;;;;15.46;100.00;102476.91;5695024;26;20092;-75
2024/04/13 06:09:00;;;;;;;8.43;6.60;;;;;;;15.57;100.00;102477.72;5698839;26;20009;-72
2024/04/13 06:11:32;;;;;;;8.85;6.78;;;;;;;15.63;100.00;102496.69;5694528;26;20006;-73
2024/04/13 06:14:04;;;;;;;10.40;6.90;;;;;;;15.62;100.00;102487.91;5689330;26;20010;-78
2024/04/13 06:16:36;;;;;;;9.98;6.90;;;;;;;15.75;100.00;102496.56;5688428;26;19998;-73
2024/04/13 06:19:11;;;;;;;10.30;7.38;;;;;;;15.79;100.00;102490.06;5696335;26;20002;-73
2024/04/13 06:21:43;;;;;;;7.80;6.95;;;;;;;15.87;100.00;102492.09;5691119;26;20366;-73
2024/04/13 06:24:15;;;;;;;9.02;7.10;;;;;;;15.88;100.00;102487.66;5696276;26;20053;-75
2024/04/13 06:26:47;;;;;;;10.95;6.78;;;;;;;16.02;100.00;102497.94;5694286;26;20029;-75
2024/04/13 06:29:19;;;;;;;7.75;6.85;;;;;;;16.10;100.00;102502.59;5666083;26;20402;-75
2024/04/13 06:31:51;;;;;;;9.02;6.97;;;;;;;16.21;100.00;102495.47;5691612;26;20026;-73
2024/04/13 06:34:23;;;;;;;9.23;7.03;;;;;;;16.23;100.00;102487.41;5697827;26;20038;-77
2024/04/13 06:36:55;;;;;;;10.23;7.30;;;;;;;16.24;100.00;102484.63;5694266;26;20017;-73
2024/04/13 06:39:27;;;;;;;9.77;6.85;;;;;;;16.36;100.00;102484.56;5694272;26;20014;-77
2024/04/13 06:42:00;;;;;;;9.05;6.35;;;;;;;16.44;100.00;102496.22;5693469;26;20013;-73
2024/04/13 06:44:32;;;;;;;8.52;6.85;;;;;;;16.55;100.00;102492.63;5691466;26;20506;-76
2024/04/13 06:47:04;;;;;;;9.32;6.72;;;;;;;16.64;100.00;102497.19;5690127;26;20030;-73
2024/04/13 06:49:36;;;;;;;9.00;6.47;;;;;;;16.68;100.00;102487.16;5690430;26;20078;-75
2024/04/13 06:52:08;;;;;;;10.40;7.10;;;;;;;16.73;100.00;102482.31;5693925;26;20054;-75
2024/04/13 06:54:40;;;;;;;10.77;7.07;;;;;;;16.85;100.00;102481.28;5697153;26;20009;-74
2024/04/13 06:57:12;;;;;;;11.15;7.10;;;;;;;16.92;100.00;102485.09;5692371;26;19998;-75
2024/04/13 06:59:45;;;;;;;10.32;6.80;;;;;;;17.06;100.00;102480.44;5697706;26;20479;-72
2024/04/13 07:02:16;;;;;;;7.63;6.67;;;;;;;17.06;100.00;102456.59;5700653;26;20061;-75
2024/04/13 07:04:50;;;;;;;8.82;6.45;;;;;;;17.18;100.00;102471.44;5690792;26;20002;-73
2024/04/13 07:07:22;;;;;;;9.40;6.72;;;;;;;17.29;100.00;102481.91;5696573;26;20030;-74
2024/04/13 07:09:55;;;;;;;8.50;6.10;;;;;;;17.38;100.00;102474.97;5697435;26;20030;-76
2024/04/13 07:12:27;;;;;;;8.80;7.03;;;;;;;17.52;100.00;102474.59;5694638;26;20027;-72
2024/04/13 07:15:01;;;;;;;8.35;6.50;;;;;;;17.60;100.00;102479.22;5695024;26;20013;-76
2024/04/13 07:17:33;;;;;;;6.90;5.80;;;;;;;17.63;100.00;102471.84;5681881;26;20042;-73
2024/04/13 07:20:06;;;;;;;9.90;6.18;;;;;;;17.80;100.00;102482.75;5690759;26;19999;-75
2024/04/13 07:22:38;;;;;;;6.80;6.10;;;;;;;17.94;100.00;102482.38;5694958;26;20030;-75
2024/04/13 07:25:10;;;;;;;9.32;5.80;;;;;;;18.04;100.00;102477.91;5683748;26;20353;-76
2024/04/13 07:27:42;;;;;;;6.32;5.70;;;;;;;18.11;100.00;102463.13;5662865;26;19998;-75
2024/04/13 07:30:20;;;;;;;8.65;6.20;;;;;;;18.40;100.00;102464.91;5690676;26;20012;-75
2024/04/13 07:32:51;;;;;;;8.57;5.75;;;;;;;18.29;100.00;102454.44;5693675;26;20038;-75
2024/04/13 07:35:23;;;;;;;8.43;5.88;;;;;;;18.29;100.00;102447.31;5689031;26;20006;-75
2024/04/13 07:37:55;;;;;;;8.52;5.57;;;;;;;18.40;100.00;102447.16;5698776;26;20053;-74
2024/04/13 07:40:27;;;;;;;7.47;5.25;;;;;;;18.47;100.00;102452.75;5691292;26;20018;-74
2024/04/13 07:42:59;;;;;;;9.15;5.57;;;;;;;18.52;100.00;102454.97;5694874;26;20073;-76
2024/04/13 07:45:31;;;;;;;6.40;4.90;;;;;;;18.59;100.00;102450.75;5689245;26;20002;-73
2024/04/13 07:48:03;;;;;;;6.07;4.70;;;;;;;18.61;100.00;102439.03;5690943;26;20080;-75
2024/04/13 07:50:35;;;;;;;9.10;5.60;;;;;;;18.76;100.00;102431.47;5640230;26;20037;-75
2024/04/13 07:53:08;;;;;;;7.43;5.10;;;;;;;18.88;100.00;102440.91;5686943;26;20247;-75
2024/04/13 07:55:40;;;;;;;7.00;5.03;;;;;;;18.94;100.00;102432.38;5685917;26;20034;-76
2024/04/13 07:58:11;;;;;;;6.40;4.30;;;;;;;19.09;100.00;102430.06;5690848;26;20006;-76
2024/04/13 08:00:44;;;;;;;6.40;4.50;;;;;;;19.23;100.00;102438.53;5689670;26;19998;-75
2024/04/13 08:03:16;;;;;;;6.33;4.47;;;;;;;19.31;100.00;102439.44;5691108;26;20020;-76
2024/04/13 08:05:48;;;;;;;6.93;4.55;;;;;;;19.43;100.00;102442.72;5691447;26;20034;-76
2024/04/13 08:08:20;;;;;;;8.30;4.60;;;;;;;19.48;100.00;102426.34;5653897;26;20004;-76
2024/04/13 08:10:52;;;;;;;6.32;4.45;;;;;;;19.56;100.00;102429.94;5694358;26;20366;-76
2024/04/13 08:13:23;;;;;;;6.87;4.33;;;;;;;19.65;100.00;102418.41;5696249;26;20010;-74
2024/04/13 08:15:55;;;;;;;5.90;4.32;;;;;;;19.79;100.00;102419.72;5688906;26;20010;-74
2024/04/13 08:18:27;;;;;;;5.30;4.30;;;;;;;19.90;100.00;102418.66;5663366;26;20816;-76
2024/04/13 08:20:59;;;;;;;6.73;4.50;;;;;;;20.00;100.00;102432.72;5685363;26;20003;-75
2024/04/13 08:23:31;;;;;;;5.40;3.75;;;;;;;20.00;100.00;102432.72;5656903;26;20016;-76
2024/04/13 08:26:04;;;;;;;7.87;4.27;;;;;;;20.05;100.00;102426.91;5692652;26;20003;-76
2024/04/13 08:28:36;;;;;;;7.38;3.95;;;;;;;20.21;100.00;102429.69;5692294;26;20054;-76
2024/04/13 08:31:08;;;;;;;4.50;3.13;;;;;;;20.17;100.00;102418.53;5690789;26;20604;-75
2024/04/13 08:33:39;;;;;;;4.95;3.10;;;;;;;20.37;100.00;102426.31;5689187;26;20009;-76
2024/04/13 08:36:11;;;;;;;7.27;3.80;;;;;;;20.39;98.51;102430.50;5696122;26;19995;-75
2024/04/13 08:38:44;;;;;;;6.95;4.10;;;;;;;20.52;99.24;102431.94;5692674;26;20012;-76
2024/04/13 08:42:03;;;;;;;5.50;3.38;;;;;;;20.93;98.45;102430.34;5692679;26;20038;-76
2024/04/13 08:44:36;;;;;;;6.10;3.75;;;;;;;20.68;95.31;102413.38;5691343;26;20391;-74
2024/04/13 08:47:10;;;;;;;5.00;3.58;;;;;;;20.71;92.58;102402.41;5698096;26;20030;-76
2024/04/13 08:49:42;;;;;;;3.97;3.55;;;;;;;20.69;91.21;102396.44;5692558;26;20045;-75
2024/04/13 08:52:15;;;;;;;6.93;3.60;;;;;;;20.78;91.33;102413.28;5656731;26;20038;-74
2024/04/13 08:54:47;;;;;;;;;;;;;;;21.65;88.18;102408.56;5691976;26;20334;-75
2024/04/13 08:57:24;;;;;;;5.13;3.80;;;;;;;21.14;94.01;102403.28;5645903;26;19964;-74
2024/04/13 09:00:00;;;;;;;6.13;3.70;;;;;;;21.29;90.33;102398.13;5679664;26;20485;-76
2024/04/13 09:02:35;;;;;;;5.38;3.47;;;;;;;21.22;86.16;102391.81;5686280;26;20401;-74
2024/04/13 09:05:08;;;;;;;7.03;3.47;;;;;;;21.47;87.74;102398.88;5698424;26;20046;-74
2024/04/13 09:07:41;;;;;;;;;;;;;;;22.31;84.24;102388.88;5696429;26;20295;-76
2024/04/13 09:10:13;;;;;;;5.82;3.50;;;;;;;21.68;83.49;102385.06;5700760;26;19983;-76
2024/04/13 09:12:47;;;;;;;5.80;3.10;;;;;;;21.84;83.39;102384.25;5693224;26;20451;-74
2024/04/13 09:15:19;;;;;;;6.55;3.75;;;;;;;21.86;80.81;102382.25;5636639;26;20003;-76
2024/04/13 09:17:55;;;;;;;4.90;2.97;;;;;;;21.97;81.46;102373.91;5694658;26;20004;-76
2024/04/13 09:20:29;;;;;;;5.20;3.75;;;;;;;21.94;77.96;102374.25;5692623;26;20026;-76
2024/04/13 09:23:01;;;;;;;5.28;3.42;;;;;;;21.99;76.47;102365.72;5692056;26;20342;-76
2024/04/13 09:25:33;;;;;;;5.07;3.10;;;;;;;22.18;76.30;102367.22;5696518;26;20034;-75
2024/04/13 09:28:05;;;;;;;5.10;3.30;;;;;;;22.22;75.92;102365.88;5700348;26;20510;-74
2024/04/13 09:30:39;;;;;;;5.37;3.70;;;;;;;22.29;74.32;102374.88;5661237;26;20017;-75
2024/04/13 09:33:13;;;;;;;5.10;3.22;;;;;;;22.34;75.19;102364.53;5655518;26;20008;-75
2024/04/13 09:35:56;;;;;;;5.28;3.38;;;;;;;22.61;75.17;102354.41;5694555;26;20724;-74
2024/04/13 09:38:28;;;;;;;5.30;3.20;;;;;;;22.47;72.10;102346.13;5694300;26;20029;-76
2024/04/13 09:41:02;;;;;;;4.80;2.87;;;;;;;22.59;69.74;102344.75;5690061;26;20002;-76
2024/04/13 09:43:35;;;;;;;5.10;2.90;;;;;;;22.69;71.15;102343.69;5693745;26;20034;-76
2024/04/13 09:46:08;;;;;;;6.68;2.92;;;;;;;22.78;69.97;102342.66;5664375;26;20425;-76
2024/04/13 09:48:40;;;;;;;5.47;3.35;;;;;;;22.94;66.61;102344.44;5695748;26;20483;-76
2024/04/13 09:51:12;;;;;;;4.55;2.83;;;;;;;22.91;65.53;102334.94;5695750;26;20038;-76
2024/04/13 09:53:44;;;;;;;5.43;3.05;;;;;;;23.13;66.40;102327.13;5693359;26;19998;-74
2024/04/13 09:56:16;;;;;;;4.82;2.80;;;;;;;23.21;64.64;102327.06;5693566;26;20035;-76
2024/04/13 09:58:50;;;;;;;5.07;3.08;;;;;;;23.31;63.60;102325.00;5657838;26;20042;-76
2024/04/13 10:01:23;;;;;;;5.55;3.05;;;;;;;23.41;65.65;102312.25;5691893;26;20111;-75
2024/04/13 10:03:55;;;;;;;5.70;2.80;;;;;;;23.55;64.42;102322.13;5694513;26;20480;-76
2024/04/13 10:06:30;;;;;;;3.87;2.47;;;;;;;23.78;62.17;102315.94;5690421;26;20003;-76
2024/04/13 10:09:06;;;;;;;4.63;2.30;;;;;;;23.81;61.39;102320.13;5694191;26;20488;-74
2024/04/13 10:11:43;;;;;;;5.85;2.50;;;;;;;23.80;60.42;102316.59;5691023;26;20030;-75
2024/04/13 10:14:18;;;;;;;6.43;2.58;;;;;;;24.04;61.91;102321.72;5658020;26;20042;-76
2024/04/13 10:16:52;;;;;;;4.55;2.10;;;;;;;24.14;59.84;102313.41;5697822;26;20027;-77
2024/04/13 10:19:25;;;;;;;3.38;2.00;;;;;;;24.14;57.54;102304.56;5665190;26;20038;-74
2024/04/13 10:22:01;;;;;;;4.18;2.55;;;;;;;24.45;57.63;102299.03;5655556;26;20038;-79
2024/04/13 10:24:33;;;;;;;3.78;2.00;;;;;;;24.46;53.98;102304.19;5689356;26;20028;-76
2024/04/13 10:27:09;;;;;;;3.55;1.70;;;;;;;24.62;52.54;102297.78;5683943;26;20002;-76
2024/04/13 10:29:48;;;;;;;4.25;2.13;;;;;;;24.76;52.90;102301.47;5660719;26;20034;-76
2024/04/13 10:32:29;;;;;;;4.85;1.98;;;;;;;24.81;52.10;102285.63;5683333;26;20006;-74
2024/04/13 10:35:09;;;;;;;4.75;1.90;;;;;;;24.94;51.90;102285.78;5686615;26;20030;-73
2024/04/13 10:37:41;;;;;;;4.00;2.08;;;;;;;24.67;51.32;102271.25;5662166;26;20042;-77
2024/04/13 10:40:26;;;;;;;3.58;2.00;;;;;;;25.05;51.22;102284.47;5683257;26;20010;-77
2024/04/13 10:43:03;;;;;;;5.28;2.30;;;;;;;24.98;49.92;102276.34;5656842;26;20046;-74
2024/04/13 10:45:35;;;;;;;4.50;1.90;;;;;;;25.02;50.27;102271.44;5653780;26;20415;-75
2024/04/13 10:48:10;;;;;;;4.90;1.70;;;;;;;25.18;49.58;102273.88;5687327;26;20006;-74
2024/04/13 10:50:43;;;;;;;4.35;1.80;;;;;;;25.01;48.27;102261.72;5693837;26;20043;-75
2024/04/13 10:53:16;;;;;;;4.00;1.95;;;;;;;25.09;48.03;102269.66;5693455;26;20355;-75
2024/04/13 10:55:49;;;;;;;4.63;1.90;;;;;;;25.14;46.86;102261.03;5684954;26;19999;-76
2024/04/13 10:58:28;;;;;;;4.18;1.70;;;;;;;25.28;48.43;102245.91;5648768;26;20003;-75
2024/04/13 11:01:00;;;;;;;3.53;1.65;;;;;;;25.25;47.74;102268.56;5686778;26;20022;-76
2024/04/13 11:03:32;;;;;;;3.78;2.00;;;;;;;25.40;47.92;102258.59;5697920;26;20042;-73
2024/04/13 11:06:05;;;;;;;5.30;2.58;;;;;;;25.30;46.71;102249.22;5694113;26;20038;-73
2024/04/13 11:08:37;;;;;;;5.13;1.90;;;;;;;25.46;48.41;102254.31;5693528;26;20045;-75
2024/04/13 11:11:10;;;;;;;4.38;1.70;;;;;;;25.54;46.78;102245.28;5690946;26;20360;-74
2024/04/13 11:13:42;;;;;;;3.25;1.85;;;;;;;25.47;47.55;102254.13;5697510;26;20034;-73
2024/04/13 11:16:14;;;;;;;3.50;1.85;;;;;;;25.50;46.11;102239.50;5691139;26;20002;-75
2024/04/13 11:18:46;;;;;;;4.90;2.10;;;;;;;25.54;45.51;102238.06;5653824;26;20029;-74
2024/04/13 11:21:22;;;;;;;3.70;1.98;;;;;;;25.62;46.15;102242.47;5685800;26;20017;-75
2024/04/13 11:23:54;;;;;;;6.30;2.10;;;;;;;25.44;46.11;102226.84;5681998;26;20030;-76
2024/04/13 11:26:29;;;;;;;5.72;2.38;;;;;;;25.46;45.91;102222.94;5679791;26;20618;-76
2024/04/13 11:29:01;;;;;;;3.97;2.30;;;;;;;25.61;47.06;102222.00;5679745;26;20441;-76
2024/04/13 11:31:34;;;;;;;3.58;1.95;;;;;;;25.90;47.32;102218.28;5683039;26;19998;-75
2024/04/13 11:34:06;;;;;;;4.72;2.45;;;;;;;25.76;46.12;102209.31;5638385;26;20033;-77
2024/04/13 11:36:38;;;;;;;4.68;2.35;;;;;;;25.77;45.76;102202.09;5688741;26;20043;-75
2024/04/13 11:39:10;;;;;;;4.50;2.00;;;;;;;25.73;45.33;102201.66;5684517;26;20014;-74
2024/04/13 11:41:42;;;;;;;5.13;2.15;;;;;;;25.77;45.37;102194.03;5683486;26;20013;-75
2024/04/13 11:44:14;;;;;;;5.82;2.45;;;;;;;25.70;45.10;102200.19;5683455;26;20018;-74